Aviation Digital Data Service (ADDS)

Output produced by METARs form (0723 UTC 24 January 2019)
found at http://aviationweather.gov/metar/data/
 
KUTS 240526Z 2406/2506 00000KT P6SM SKC 
     FM241500 17004KT P6SM SCT250